Time;durP1;ratioP1;P1;durP2;ratioP2;P2;SDS_P1;SDS_P2;PMS_P1;PMS_P2;Temp;Humidity;BMP_temperature;BMP_pressure;BME280_temperature;BME280_humidity;BME280_pressure;Samples;Min_cycle;Max_cycle;Signal;HPM_P1;HPM_P2
2023/04/27 00:01:05;;;;;;;0.10;0.10;;;-1.00;99.90;;;;;;4963919;28;20062;-77
2023/04/27 00:03:31;;;;;;;1.17;1.08;;;-1.00;99.90;;;;;;4964188;28;20058;-77
2023/04/27 00:05:56;;;;;;;0.00;0.00;;;-1.00;99.90;;;;;;4964777;28;20074;-77
2023/04/27 00:08:22;;;;;;;0.00;0.00;;;-0.90;99.90;;;;;;4964141;28;20054;-78
2023/04/27 00:10:47;;;;;;;0.00;0.00;;;-0.90;99.90;;;;;;4964448;28;20114;-77
2023/04/27 00:13:13;;;;;;;0.10;0.10;;;-0.80;99.90;;;;;;4964330;28;20058;-77
2023/04/27 00:15:39;;;;;;;0.38;0.38;;;-0.70;99.90;;;;;;4964053;28;20051;-77
2023/04/27 00:18:05;;;;;;;0.10;0.10;;;-0.60;99.90;;;;;;4964170;28;20058;-78
2023/04/27 00:20:32;;;;;;;0.22;0.22;;;-0.50;99.90;;;;;;4963903;28;20472;-78
2023/04/27 00:22:58;;;;;;;0.05;0.05;;;-0.30;99.90;;;;;;4964642;28;20085;-78
2023/04/27 00:25:23;;;;;;;0.10;0.10;;;-0.20;99.90;;;;;;4965997;28;20132;-78
2023/04/27 00:27:49;;;;;;;0.00;0.00;;;0.00;99.90;;;;;;4967790;28;20051;-77
2023/04/27 00:30:15;;;;;;;0.65;0.60;;;0.10;99.90;;;;;;4967376;28;20058;-78
2023/04/27 00:32:41;;;;;;;0.03;0.03;;;0.20;99.90;;;;;;4967494;28;20097;-78
2023/04/27 00:35:07;;;;;;;0.63;0.63;;;0.30;99.90;;;;;;4967475;28;20239;-78
2023/04/27 00:37:33;;;;;;;0.30;0.30;;;0.40;99.90;;;;;;4967170;28;20824;-78
2023/04/27 00:39:58;;;;;;;0.00;0.00;;;0.50;99.90;;;;;;4967416;28;20043;-79
2023/04/27 00:42:24;;;;;;;0.10;0.10;;;0.50;99.90;;;;;;4967263;28;20051;-78
2023/04/27 00:44:50;;;;;;;0.00;0.00;;;0.50;99.90;;;;;;4967984;28;20051;-79
2023/04/27 00:47:16;;;;;;;0.00;0.00;;;0.60;99.90;;;;;;4967526;28;20093;-78
2023/04/27 00:49:41;;;;;;;0.10;0.10;;;0.60;99.90;;;;;;4966029;28;20054;-78
2023/04/27 00:52:07;;;;;;;0.68;0.68;;;0.70;99.90;;;;;;4965945;28;20047;-78
2023/04/27 00:54:33;;;;;;;0.32;0.32;;;0.70;99.90;;;;;;4967241;28;20627;-78
2023/04/27 00:56:59;;;;;;;0.00;0.00;;;0.80;99.90;;;;;;4967052;28;20051;-78
2023/04/27 00:59:25;;;;;;;0.30;0.30;;;0.80;99.90;;;;;;4966957;28;20046;-78
2023/04/27 01:01:51;;;;;;;0.05;0.05;;;1.40;99.90;;;;;;4966811;28;20188;-78
2023/04/27 01:04:17;;;;;;;0.00;0.00;;;1.00;99.90;;;;;;4965694;28;20062;-78
2023/04/27 01:06:43;;;;;;;0.00;0.00;;;1.10;99.90;;;;;;4966478;28;20055;-79
2023/04/27 01:09:09;;;;;;;2.10;1.35;;;1.10;99.90;;;;;;4966207;28;20046;-78
2023/04/27 01:11:35;;;;;;;0.15;0.15;;;1.20;99.90;;;;;;4966679;28;20043;-78
2023/04/27 01:14:05;;;;;;;0.00;0.00;;;1.30;99.90;;;;;;4967152;28;20050;-78
2023/04/27 01:16:34;;;;;;;0.05;0.05;;;1.30;99.90;;;;;;4965763;28;20051;-78
2023/04/27 01:19:00;;;;;;;0.10;0.10;;;1.30;99.90;;;;;;4966916;28;20058;-79
2023/04/27 01:21:26;;;;;;;0.20;0.20;;;1.30;99.90;;;;;;4966839;28;20431;-78
2023/04/27 01:23:52;;;;;;;0.28;0.28;;;1.30;99.90;;;;;;4966678;28;20047;-79
2023/04/27 01:26:18;;;;;;;0.30;0.30;;;1.20;96.40;;;;;;4967078;28;20051;-79
2023/04/27 01:28:44;;;;;;;0.00;0.00;;;1.00;93.20;;;;;;4966963;28;20063;-78
2023/04/27 01:31:10;;;;;;;0.28;0.28;;;0.90;98.70;;;;;;4966674;28;20893;-78
2023/04/27 01:33:37;;;;;;;0.63;0.38;;;0.70;99.90;;;;;;4967292;28;20057;-78
2023/04/27 01:36:03;;;;;;;1.15;0.80;;;0.60;99.90;;;;;;4969534;28;20065;-78
2023/04/27 01:38:28;;;;;;;0.45;0.40;;;0.50;99.90;;;;;;4969702;28;20126;-78
2023/04/27 01:41:00;;;;;;;0.15;0.15;;;0.40;99.90;;;;;;4969657;28;20471;-79
2023/04/27 01:43:26;;;;;;;0.10;0.10;;;0.30;99.90;;;;;;4969931;28;20408;-78
2023/04/27 01:45:52;;;;;;;0.10;0.10;;;0.20;99.90;;;;;;4970833;28;20092;-78
2023/04/27 01:48:18;;;;;;;0.10;0.10;;;0.20;99.90;;;;;;4972950;28;20043;-78
2023/04/27 01:50:43;;;;;;;0.00;0.00;;;0.10;99.90;;;;;;4972236;28;20051;-77
2023/04/27 01:53:09;;;;;;;0.38;0.38;;;0.10;99.90;;;;;;4972179;28;20043;-78
2023/04/27 01:55:35;;;;;;;0.40;0.40;;;0.10;99.90;;;;;;4973205;28;20545;-78
2023/04/27 01:58:01;;;;;;;0.30;0.30;;;0.00;99.90;;;;;;4973274;28;20057;-78
2023/04/27 02:00:26;;;;;;;0.17;0.17;;;-0.20;99.90;;;;;;4972084;28;20041;-78
2023/04/27 02:02:52;;;;;;;0.30;0.30;;;-0.20;99.90;;;;;;4972487;28;20047;-78
2023/04/27 02:05:20;;;;;;;0.10;0.10;;;-0.30;99.90;;;;;;4970813;28;20141;-78
2023/04/27 02:07:45;;;;;;;0.00;0.00;;;-0.30;99.90;;;;;;4967205;28;20130;-78
2023/04/27 02:10:11;;;;;;;0.45;0.45;;;-0.30;99.90;;;;;;4966831;28;20134;-78
2023/04/27 02:12:36;;;;;;;0.10;0.10;;;-0.40;99.90;;;;;;4966647;28;20138;-78
2023/04/27 02:15:02;;;;;;;0.30;0.30;;;-0.40;99.90;;;;;;4966292;28;20110;-78
2023/04/27 02:17:30;;;;;;;0.30;0.30;;;-0.40;99.90;;;;;;4966420;28;20051;-78
2023/04/27 02:19:55;;;;;;;0.00;0.00;;;-0.50;99.90;;;;;;4966104;28;20066;-78
2023/04/27 02:22:21;;;;;;;1.65;1.55;;;-0.50;99.90;;;;;;4966444;28;20061;-79
2023/04/27 02:24:47;;;;;;;2.17;0.90;;;-0.50;99.90;;;;;;4965905;28;20051;-77
2023/04/27 02:27:12;;;;;;;0.00;0.00;;;-0.60;99.90;;;;;;4965809;28;20047;-78
2023/04/27 02:29:38;;;;;;;0.00;0.00;;;-0.70;99.90;;;;;;4965841;28;20082;-78
2023/04/27 02:32:06;;;;;;;0.10;0.10;;;-0.80;99.90;;;;;;4965875;28;20061;-78
2023/04/27 02:34:32;;;;;;;0.10;0.10;;;-0.80;99.90;;;;;;4965546;28;20046;-78
2023/04/27 02:36:58;;;;;;;0.20;0.20;;;-0.80;99.90;;;;;;4965935;28;20047;-78
2023/04/27 02:39:23;;;;;;;0.10;0.10;;;-0.80;99.90;;;;;;4965478;28;20058;-78
2023/04/27 02:41:49;;;;;;;0.10;0.10;;;-0.90;99.90;;;;;;4966589;28;20510;-79
2023/04/27 02:44:15;;;;;;;0.10;0.10;;;-1.00;99.90;;;;;;4967107;28;20050;-78
2023/04/27 02:46:40;;;;;;;0.30;0.30;;;-1.00;99.90;;;;;;4965699;28;20146;-78
2023/04/27 02:49:06;;;;;;;0.00;0.00;;;-1.00;99.90;;;;;;4966399;28;20204;-78
2023/04/27 02:51:32;;;;;;;0.20;0.20;;;-1.00;99.90;;;;;;4966199;28;20115;-78
2023/04/27 02:53:57;;;;;;;1.48;0.57;;;-1.10;99.90;;;;;;4964979;28;20148;-78
2023/04/27 02:56:23;;;;;;;0.40;0.40;;;-1.10;99.90;;;;;;4965523;28;20055;-77
2023/04/27 02:58:49;;;;;;;0.63;0.63;;;-1.20;99.90;;;;;;4964302;28;20055;-78
2023/04/27 03:01:16;;;;;;;0.75;0.65;;;-1.20;99.90;;;;;;4964882;28;20047;-78
2023/04/27 03:03:45;;;;;;;0.10;0.10;;;-1.20;99.90;;;;;;4964412;28;20066;-78
2023/04/27 03:06:11;;;;;;;0.20;0.20;;;-1.20;99.90;;;;;;4964450;28;20133;-78
2023/04/27 03:08:37;;;;;;;0.00;0.00;;;-1.20;99.90;;;;;;4964726;28;20138;-78
2023/04/27 03:11:02;;;;;;;1.98;0.75;;;-1.30;99.90;;;;;;4965062;28;20058;-78
2023/04/27 03:13:28;;;;;;;0.08;0.08;;;-1.30;99.90;;;;;;4964762;28;20051;-77
2023/04/27 03:15:54;;;;;;;1.10;1.00;;;-1.30;99.90;;;;;;4965341;28;20043;-78
2023/04/27 03:18:20;;;;;;;0.20;0.20;;;-1.30;99.90;;;;;;4965110;28;20125;-78
2023/04/27 03:20:46;;;;;;;0.15;0.15;;;-1.40;99.90;;;;;;4965187;28;20534;-78
2023/04/27 03:23:12;;;;;;;0.10;0.10;;;-1.40;99.90;;;;;;4965349;28;20142;-78
2023/04/27 03:25:37;;;;;;;0.00;0.00;;;-1.40;99.90;;;;;;4965064;28;20047;-78
2023/04/27 03:28:03;;;;;;;0.00;0.00;;;-1.40;99.90;;;;;;4964511;28;20130;-78
2023/04/27 03:30:29;;;;;;;0.10;0.10;;;-1.50;99.90;;;;;;4964920;28;20056;-78
2023/04/27 03:32:55;;;;;;;0.10;0.10;;;-1.50;99.90;;;;;;4964867;28;20116;-78
2023/04/27 03:35:20;;;;;;;0.10;0.10;;;-0.90;99.90;;;;;;4965302;28;20043;-78
2023/04/27 03:37:46;;;;;;;0.63;0.63;;;-1.50;99.90;;;;;;4964882;28;20053;-77
2023/04/27 03:40:13;;;;;;;0.10;0.10;;;-1.50;99.90;;;;;;4964598;28;20058;-78
2023/04/27 03:42:38;;;;;;;0.10;0.10;;;-1.50;99.90;;;;;;4964621;28;20058;-77
2023/04/27 03:45:06;;;;;;;1.08;0.98;;;-1.50;99.90;;;;;;4964946;28;20055;-78
2023/04/27 03:47:31;;;;;;;0.05;0.05;;;-1.50;99.90;;;;;;4964506;28;20757;-78
2023/04/27 03:49:57;;;;;;;0.20;0.20;;;-1.50;99.90;;;;;;4964945;28;20058;-78
2023/04/27 03:52:23;;;;;;;0.00;0.00;;;-1.50;99.90;;;;;;4964486;28;20535;-78
2023/04/27 03:54:48;;;;;;;0.30;0.30;;;-0.70;99.90;;;;;;4963879;28;20050;-78
2023/04/27 03:57:14;;;;;;;1.48;1.38;;;-1.20;99.90;;;;;;4964467;28;20055;-77
2023/04/27 03:59:40;;;;;;;0.15;0.15;;;-1.30;99.90;;;;;;4967454;28;20516;-78
2023/04/27 04:02:07;;;;;;;0.08;0.08;;;-1.40;99.90;;;;;;4966862;28;20050;-78
2023/04/27 04:04:33;;;;;;;0.00;0.00;;;-1.40;99.90;;;;;;4965586;28;20062;-78
2023/04/27 04:06:58;;;;;;;0.00;0.00;;;-1.40;99.90;;;;;;4966939;28;20047;-78
2023/04/27 04:09:24;;;;;;;0.20;0.20;;;-1.50;99.90;;;;;;4965600;28;20161;-77
2023/04/27 04:11:51;;;;;;;1.90;0.60;;;-1.40;99.90;;;;;;4966638;28;20412;-78
2023/04/27 04:14:17;;;;;;;0.10;0.10;;;-1.40;99.90;;;;;;4966701;28;20054;-78
2023/04/27 04:16:42;;;;;;;0.20;0.20;;;-1.40;99.90;;;;;;4966854;28;20051;-78
2023/04/27 04:19:08;;;;;;;0.40;0.40;;;-1.40;99.90;;;;;;4966881;28;20054;-78
2023/04/27 04:21:33;;;;;;;0.00;0.00;;;-1.40;99.90;;;;;;4967357;28;20055;-77
2023/04/27 04:23:59;;;;;;;0.30;0.30;;;-1.40;99.90;;;;;;4967151;28;20057;-77
2023/04/27 04:26:26;;;;;;;0.52;0.52;;;-1.40;99.90;;;;;;4966755;28;20570;-78
2023/04/27 04:28:51;;;;;;;0.47;0.47;;;-1.40;99.90;;;;;;4967419;28;20108;-78
2023/04/27 04:31:17;;;;;;;0.20;0.20;;;-1.40;99.90;;;;;;4966830;28;20059;-77
2023/04/27 04:33:42;;;;;;;0.00;0.00;;;-1.40;99.90;;;;;;4967078;28;20059;-78
2023/04/27 04:36:09;;;;;;;2.72;0.57;;;-1.30;99.90;;;;;;4966444;28;20537;-77
2023/04/27 04:38:35;;;;;;;0.10;0.10;;;-1.30;99.90;;;;;;4966858;28;20086;-78
2023/04/27 04:41:01;;;;;;;0.05;0.05;;;-1.20;99.90;;;;;;4966331;28;20110;-78
2023/04/27 04:43:27;;;;;;;0.10;0.10;;;-1.10;99.90;;;;;;4966634;28;20047;-77
2023/04/27 04:45:53;;;;;;;0.00;0.00;;;-0.90;99.90;;;;;;4966304;28;20086;-77
2023/04/27 04:48:19;;;;;;;0.00;0.00;;;-0.70;99.90;;;;;;4966287;28;20081;-78
2023/04/27 04:50:45;;;;;;;0.30;0.30;;;-0.50;99.90;;;;;;4966788;28;20053;-78
2023/04/27 04:53:10;;;;;;;0.20;0.20;;;-0.30;99.90;;;;;;4966580;28;20054;-77
2023/04/27 04:55:36;;;;;;;0.20;0.20;;;0.00;99.90;;;;;;4966807;28;20054;-78
2023/04/27 04:58:02;;;;;;;0.52;0.52;;;0.20;99.90;;;;;;4966701;28;20082;-77
2023/04/27 05:00:27;;;;;;;0.20;0.20;;;0.30;99.90;;;;;;4966551;28;20542;-78
2023/04/27 05:02:53;;;;;;;0.73;0.45;;;0.30;99.90;;;;;;4965096;28;20093;-79
2023/04/27 05:05:18;;;;;;;0.10;0.10;;;0.30;99.90;;;;;;4964721;28;20082;-77
2023/04/27 05:07:44;;;;;;;0.57;0.55;;;0.40;99.90;;;;;;4965158;28;20446;-78
2023/04/27 05:10:10;;;;;;;0.55;0.55;;;0.50;99.90;;;;;;4963677;28;20196;-79
2023/04/27 05:12:35;;;;;;;0.20;0.20;;;0.40;99.90;;;;;;4964284;28;20043;-78
2023/04/27 05:15:01;;;;;;;0.10;0.10;;;0.40;99.90;;;;;;4967138;28;20050;-78
2023/04/27 05:17:27;;;;;;;0.10;0.10;;;0.40;99.90;;;;;;4965373;28;20058;-78
2023/04/27 05:19:53;;;;;;;0.10;0.10;;;0.50;99.90;;;;;;4965419;28;20043;-78
2023/04/27 05:22:18;;;;;;;0.60;0.60;;;0.60;99.90;;;;;;4965232;28;20051;-78
2023/04/27 05:24:44;;;;;;;1.35;0.63;;;0.70;99.90;;;;;;4965941;28;20059;-78
2023/04/27 05:27:13;;;;;;;0.00;0.00;;;0.80;99.90;;;;;;4980514;28;20138;-78
2023/04/27 05:29:39;;;;;;;0.10;0.10;;;1.00;99.90;;;;;;4965447;28;20138;-78
2023/04/27 05:32:05;;;;;;;0.75;0.32;;;1.20;99.90;;;;;;4965431;28;20097;-78
2023/04/27 05:34:31;;;;;;;0.63;0.63;;;1.40;99.90;;;;;;4965607;28;20047;-78
2023/04/27 05:36:56;;;;;;;0.15;0.15;;;1.60;99.90;;;;;;4964444;28;20043;-78
2023/04/27 05:39:22;;;;;;;0.10;0.10;;;1.80;99.90;;;;;;4966794;28;20043;-78
2023/04/27 05:41:48;;;;;;;0.00;0.00;;;2.00;99.90;;;;;;4967164;28;20053;-79
2023/04/27 05:44:14;;;;;;;0.00;0.00;;;2.10;99.90;;;;;;4967649;28;20065;-79
2023/04/27 05:46:39;;;;;;;0.10;0.10;;;2.30;99.90;;;;;;4968394;28;20135;-78
2023/04/27 05:49:05;;;;;;;0.00;0.00;;;2.40;99.90;;;;;;4967834;28;20051;-79
2023/04/27 05:51:32;;;;;;;0.10;0.10;;;2.50;99.90;;;;;;4967477;28;20504;-79
2023/04/27 05:53:58;;;;;;;0.00;0.00;;;2.50;99.90;;;;;;4967906;28;20077;-78
2023/04/27 05:56:24;;;;;;;0.00;0.00;;;2.60;99.90;;;;;;4966042;28;20042;-79
2023/04/27 05:58:50;;;;;;;0.00;0.00;;;2.60;99.90;;;;;;4966638;28;20512;-79
2023/04/27 06:01:16;;;;;;;1.40;0.98;;;2.70;99.90;;;;;;4965988;28;20046;-79
2023/04/27 06:03:42;;;;;;;1.67;1.55;;;2.70;99.90;;;;;;4966068;28;20412;-79
2023/04/27 06:06:07;;;;;;;0.10;0.10;;;2.70;99.90;;;;;;4966301;28;20054;-80
2023/04/27 06:08:36;;;;;;;2.17;1.45;;;2.80;99.90;;;;;;4966590;28;20057;-79
2023/04/27 06:11:02;;;;;;;0.00;0.00;;;3.10;99.90;;;;;;4965986;28;20192;-79
2023/04/27 06:13:27;;;;;;;0.00;0.00;;;4.10;99.90;;;;;;4965553;28;20121;-79
2023/04/27 06:15:53;;;;;;;0.43;0.38;;;5.20;99.90;;;;;;4991747;28;20119;-79
2023/04/27 06:18:19;;;;;;;0.00;0.00;;;6.30;99.90;;;;;;5047701;28;20049;-79
2023/04/27 06:20:45;;;;;;;0.55;0.55;;;7.30;99.90;;;;;;5034529;28;20050;-78
2023/04/27 06:23:11;;;;;;;0.20;0.20;;;8.10;1.00;;;;;;4967990;28;20054;-79
2023/04/27 06:25:38;;;;;;;0.45;0.40;;;8.80;1.00;;;;;;4967901;28;20054;-79
2023/04/27 06:28:05;;;;;;;1.20;0.68;;;9.50;99.90;;;;;;4967658;28;20493;-79
2023/04/27 06:30:30;;;;;;;0.00;0.00;;;10.10;1.00;;;;;;4968109;28;20093;-79
2023/04/27 06:32:56;;;;;;;8.60;1.10;;;10.60;1.00;;;;;;4968180;28;20042;-79
2023/04/27 06:35:22;;;;;;;0.63;0.50;;;11.20;1.00;;;;;;4966593;28;20134;-79
2023/04/27 06:37:47;;;;;;;1.60;0.63;;;11.70;1.00;;;;;;4967187;28;20038;-79
2023/04/27 06:40:13;;;;;;;0.20;0.20;;;12.20;99.90;;;;;;4968897;28;20073;-79
2023/04/27 06:42:39;;;;;;;0.35;0.32;;;12.40;99.90;;;;;;4968122;28;20054;-79
2023/04/27 06:45:06;;;;;;;0.52;0.45;;;12.60;99.90;;;;;;4969498;28;20075;-79
2023/04/27 06:47:32;;;;;;;0.00;0.00;;;12.70;99.90;;;;;;4970262;28;20059;-79
2023/04/27 06:49:57;;;;;;;0.63;0.28;;;13.00;99.90;;;;;;4969991;28;20046;-79
2023/04/27 06:52:23;;;;;;;0.43;0.43;;;13.30;99.90;;;;;;4966504;28;20057;-78
2023/04/27 06:54:48;;;;;;;0.38;0.15;;;13.60;99.90;;;;;;4969496;28;20042;-79
2023/04/27 06:57:14;;;;;;;0.00;0.00;;;13.80;99.90;;;;;;4966622;28;20047;-79
2023/04/27 06:59:40;;;;;;;0.00;0.00;;;14.10;99.90;;;;;;4966247;28;20047;-78
2023/04/27 07:02:06;;;;;;;0.10;0.10;;;14.30;99.90;;;;;;4958252;28;20057;-79
2023/04/27 07:04:32;;;;;;;0.00;0.00;;;14.40;99.90;;;;;;4955336;28;20124;-81
2023/04/27 07:06:58;;;;;;;0.30;0.20;;;14.60;99.90;;;;;;4957127;28;20042;-78
2023/04/27 07:09:24;;;;;;;0.75;0.47;;;14.60;99.90;;;;;;4951433;28;20039;-79
2023/04/27 07:11:49;;;;;;;0.00;0.00;;;14.80;99.90;;;;;;4963437;28;20043;-79
2023/04/27 07:14:15;;;;;;;0.03;0.03;;;15.10;99.90;;;;;;4966185;28;20057;-78
2023/04/27 07:16:42;;;;;;;0.47;0.30;;;15.10;99.90;;;;;;4958442;28;20039;-79
2023/04/27 07:19:08;;;;;;;0.00;0.00;;;15.00;99.90;;;;;;4956806;28;20051;-79
2023/04/27 07:21:34;;;;;;;0.00;0.00;;;15.20;99.90;;;;;;4957483;28;20058;-79
2023/04/27 07:24:00;;;;;;;0.00;0.00;;;15.20;99.90;;;;;;4964270;28;20061;-79
2023/04/27 07:26:26;;;;;;;0.10;0.10;;;15.30;99.90;;;;;;4966727;28;20043;-80
2023/04/27 07:28:51;;;;;;;0.00;0.00;;;15.30;99.90;;;;;;4966851;28;20045;-80
2023/04/27 07:31:21;;;;;;;0.00;0.00;;;15.50;99.90;;;;;;4960080;28;20600;-80
2023/04/27 07:33:47;;;;;;;0.85;0.43;;;15.40;99.90;;;;;;4956974;28;20043;-80
2023/04/27 07:36:12;;;;;;;0.10;0.10;;;15.60;99.90;;;;;;4966238;28;20049;-80
2023/04/27 07:38:38;;;;;;;0.03;0.03;;;15.50;99.90;;;;;;4965881;28;20107;-80
2023/04/27 07:41:05;;;;;;;0.00;0.00;;;15.60;99.90;;;;;;4959249;28;20078;-80
2023/04/27 07:43:31;;;;;;;0.00;0.00;;;15.90;99.90;;;;;;4958921;28;20058;-80
2023/04/27 07:45:57;;;;;;;2.08;1.20;;;16.10;99.90;;;;;;4958274;28;20047;-80
2023/04/27 07:48:23;;;;;;;0.00;0.00;;;16.30;99.90;;;;;;4966006;28;20429;-80
2023/04/27 07:50:49;;;;;;;0.00;0.00;;;16.40;99.90;;;;;;4958985;28;20441;-80
2023/04/27 07:53:16;;;;;;;0.17;0.10;;;16.50;99.90;;;;;;4955140;28;20047;-80
2023/04/27 07:55:43;;;;;;;0.10;0.00;;;16.60;99.90;;;;;;4965801;28;20530;-80
2023/04/27 07:58:10;;;;;;;0.00;0.00;;;16.90;99.90;;;;;;4989267;28;20082;-80
2023/04/27 08:00:36;;;;;;;0.00;0.00;;;17.00;99.90;;;;;;4955707;28;20062;-80
2023/04/27 08:03:02;;;;;;;0.43;0.32;;;17.00;99.90;;;;;;4963310;28;20078;-80
2023/04/27 08:05:28;;;;;;;0.00;0.00;;;17.30;99.90;;;;;;4966990;28;20089;-81
2023/04/27 08:07:53;;;;;;;0.08;0.05;;;16.90;95.50;;;;;;4962787;28;20075;-80
2023/04/27 08:10:19;;;;;;;1.35;0.75;;;17.10;99.20;;;;;;4957205;28;20058;-80
2023/04/27 08:12:45;;;;;;;0.00;0.00;;;17.10;99.90;;;;;;4957819;28;20042;-80
2023/04/27 08:15:11;;;;;;;0.10;0.10;;;17.30;99.90;;;;;;4985917;28;20256;-81
2023/04/27 08:17:39;;;;;;;0.35;0.22;;;17.50;95.20;;;;;;4957753;28;20474;-80
2023/04/27 08:20:06;;;;;;;0.38;0.20;;;17.40;91.90;;;;;;4964015;28;20137;-81
2023/04/27 08:22:32;;;;;;;1.25;0.95;;;17.10;73.30;;;;;;4960810;28;20058;-80
2023/04/27 08:24:58;;;;;;;0.00;0.00;;;17.30;83.00;;;;;;4956502;28;20126;-80
2023/04/27 08:27:24;;;;;;;0.65;0.32;;;17.40;76.60;;;;;;4952862;28;20054;-81
2023/04/27 08:29:50;;;;;;;0.00;0.00;;;17.40;74.60;;;;;;4966470;28;20102;-80
2023/04/27 08:32:16;;;;;;;0.08;0.08;;;17.40;67.20;;;;;;4956076;28;20067;-80
2023/04/27 08:34:43;;;;;;;0.00;0.00;;;17.50;68.40;;;;;;4954758;28;20082;-80
2023/04/27 08:37:10;;;;;;;0.00;0.00;;;17.80;78.20;;;;;;4953952;28;20066;-80
2023/04/27 08:39:35;;;;;;;0.00;0.00;;;18.10;67.90;;;;;;4966840;28;20054;-81
2023/04/27 08:42:08;;;;;;;3.72;0.45;;;17.80;65.20;;;;;;4966933;28;20393;-81
2023/04/27 08:44:40;;;;;;;0.50;0.50;;;17.90;62.20;;;;;;4958038;28;20049;-80
2023/04/27 08:47:07;;;;;;;0.30;0.10;;;17.90;50.50;;;;;;4973618;28;20065;-80
2023/04/27 08:49:33;;;;;;;0.38;0.13;;;18.00;50.40;;;;;;4973491;28;20039;-80
2023/04/27 08:51:59;;;;;;;0.00;0.00;;;18.20;52.40;;;;;;4974846;28;20087;-80
2023/04/27 08:54:26;;;;;;;0.25;0.20;;;18.10;47.60;;;;;;4971281;28;20240;-81
2023/04/27 08:56:51;;;;;;;0.10;0.10;;;18.10;46.80;;;;;;4969146;28;20129;-81
2023/04/27 08:59:17;;;;;;;0.45;0.40;;;18.20;46.50;;;;;;4963551;28;20714;-81
2023/04/27 09:01:44;;;;;;;0.00;0.00;;;18.40;32.80;;;;;;4961487;28;20046;-81
2023/04/27 09:04:10;;;;;;;0.20;0.10;;;19.30;39.00;;;;;;4963797;28;20138;-81
2023/04/27 09:06:36;;;;;;;0.28;0.20;;;18.90;39.90;;;;;;4963408;28;20127;-81
2023/04/27 09:09:03;;;;;;;0.10;0.10;;;18.80;20.20;;;;;;4956883;28;20047;-81
2023/04/27 09:11:39;;;;;;;0.00;0.00;;;18.60;8.60;;;;;;4955772;28;20051;-81
2023/04/27 09:14:15;;;;;;;;;;;18.60;6.10;;;;;;4948451;28;20062;-81
2023/04/27 09:16:41;;;;;;;0.00;0.00;;;18.50;1.00;;;;;;4950718;28;20268;-81
2023/04/27 09:19:07;;;;;;;0.10;0.10;;;18.60;1.00;;;;;;4948639;28;20051;-78
2023/04/27 09:21:33;;;;;;;1.55;0.43;;;18.50;1.00;;;;;;4957044;28;20058;-79
2023/04/27 09:24:12;;;;;;;0.32;0.30;;;18.60;1.00;;;;;;4960943;28;20439;-78
2023/04/27 09:26:38;;;;;;;0.00;0.00;;;18.20;1.00;;;;;;4961165;28;20047;-78
2023/04/27 09:29:04;;;;;;;0.20;0.15;;;18.10;1.00;;;;;;4965992;28;20058;-80
2023/04/27 09:31:31;;;;;;;0.35;0.20;;;17.80;1.00;;;;;;4969164;28;20047;-80
2023/04/27 09:33:57;;;;;;;0.00;0.00;;;17.40;1.00;;;;;;4968652;28;20134;-80
2023/04/27 09:36:24;;;;;;;0.20;0.10;;;17.10;1.00;;;;;;4967681;28;20074;-79
2023/04/27 09:38:51;;;;;;;0.85;0.63;;;16.80;1.00;;;;;;4968647;28;20050;-80
2023/04/27 09:41:17;;;;;;;0.00;0.00;;;17.20;1.00;;;;;;4967763;28;20093;-79
2023/04/27 09:43:44;;;;;;;0.98;0.75;;;17.10;1.00;;;;;;4966561;28;20055;-79
2023/04/27 09:46:14;;;;;;;0.03;0.03;;;17.00;1.00;;;;;;4965779;28;20051;-79
2023/04/27 09:48:41;;;;;;;1.45;0.25;;;17.30;1.00;;;;;;4965593;28;20065;-79
2023/04/27 09:51:07;;;;;;;1.85;1.15;;;17.40;1.00;;;;;;4953959;28;20055;-79
2023/04/27 09:53:37;;;;;;;0.00;0.00;;;17.50;1.00;;;;;;4958666;28;20147;-79
2023/04/27 09:56:15;;;;;;;2.10;0.90;;;17.50;1.00;;;;;;4961447;28;20101;-80
2023/04/27 09:58:52;;;;;;;0.00;0.00;;;17.80;1.00;;;;;;4958264;28;20053;-80
2023/04/27 10:01:18;;;;;;;0.10;0.10;;;16.90;1.00;;;;;;4962291;28;20141;-80
2023/04/27 10:04:05;;;;;;;0.30;0.00;;;16.40;1.00;;;;;;4963146;28;20079;-80
2023/04/27 10:06:49;;;;;;;0.20;0.20;;;16.30;1.00;;;;;;4950750;28;20047;-80
2023/04/27 10:09:22;;;;;;;0.90;0.52;;;16.20;1.00;;;;;;4964107;28;20053;-80
2023/04/27 10:11:48;;;;;;;0.70;0.52;;;16.60;1.00;;;;;;4950235;28;20051;-80
2023/04/27 10:14:19;;;;;;;3.30;0.47;;;15.80;1.00;;;;;;4951759;28;20108;-80
2023/04/27 10:16:54;;;;;;;1.15;1.05;;;16.20;1.00;;;;;;4959383;28;20695;-80
2023/04/27 10:19:22;;;;;;;4.47;0.65;;;16.30;1.00;;;;;;4953704;28;20051;-80
2023/04/27 10:22:02;;;;;;;0.22;0.13;;;16.40;1.00;;;;;;4963918;28;20081;-80
2023/04/27 10:24:38;;;;;;;0.35;0.35;;;16.60;1.00;;;;;;4960172;28;20528;-80
2023/04/27 10:27:06;;;;;;;0.15;0.15;;;16.60;1.00;;;;;;4949440;28;20051;-80
2023/04/27 10:29:40;;;;;;;18.42;0.55;;;16.70;1.00;;;;;;4948799;28;20055;-80
2023/04/27 10:32:11;;;;;;;0.13;0.13;;;16.80;1.00;;;;;;4965455;28;20105;-81
2023/04/27 10:34:37;;;;;;;0.52;0.50;;;16.70;1.00;;;;;;4969299;28;20528;-80
2023/04/27 10:37:08;;;;;;;0.47;0.45;;;17.20;1.00;;;;;;4968542;28;20047;-80
2023/04/27 10:39:39;;;;;;;0.50;0.47;;;17.50;1.00;;;;;;4968270;28;20051;-80
2023/04/27 10:42:05;;;;;;;0.65;0.57;;;17.90;1.00;;;;;;4969398;28;20460;-80
2023/04/27 10:44:34;;;;;;;0.20;0.20;;;17.80;1.00;;;;;;4969052;28;20046;-80
2023/04/27 10:47:02;;;;;;;0.52;0.45;;;17.40;1.00;;;;;;4968351;28;20543;-80
2023/04/27 10:49:28;;;;;;;0.38;0.38;;;17.40;1.00;;;;;;4969709;28;20053;-80
2023/04/27 10:51:57;;;;;;;6.82;0.73;;;17.30;1.00;;;;;;4969085;28;20077;-81
2023/04/27 10:54:29;;;;;;;1.35;0.30;;;17.40;1.00;;;;;;4969603;28;20120;-80
2023/04/27 10:57:08;;;;;;;0.73;0.40;;;17.30;1.00;;;;;;4969248;28;20043;-80
2023/04/27 10:59:46;;;;;;;1.00;0.63;;;17.30;1.00;;;;;;4969965;28;20122;-81
2023/04/27 11:02:11;;;;;;;0.40;0.40;;;17.00;1.00;;;;;;4967566;28;20062;-80
2023/04/27 11:04:41;;;;;;;0.25;0.15;;;16.70;1.00;;;;;;4969506;28;20055;-80
2023/04/27 11:07:09;;;;;;;0.28;0.20;;;16.50;1.00;;;;;;4968334;28;20047;-80
2023/04/27 11:09:38;;;;;;;0.20;0.20;;;16.00;1.00;;;;;;4969329;28;20054;-80
2023/04/27 11:12:11;;;;;;;0.95;0.63;;;15.90;1.00;;;;;;4968435;28;21112;-80
2023/04/27 11:14:37;;;;;;;0.10;0.10;;;15.50;1.00;;;;;;4969157;28;20047;-80
2023/04/27 11:17:04;;;;;;;0.57;0.57;;;15.20;1.00;;;;;;4969584;28;20050;-80
2023/04/27 11:19:29;;;;;;;0.17;0.17;;;14.90;1.00;;;;;;4969722;28;20050;-80
2023/04/27 11:22:05;;;;;;;0.57;0.57;;;14.90;1.00;;;;;;4968435;28;20524;-80
2023/04/27 11:24:32;;;;;;;0.52;0.30;;;14.80;1.00;;;;;;4969017;28;20051;-80
2023/04/27 11:26:57;;;;;;;0.60;0.60;;;14.70;1.00;;;;;;4968531;28;20129;-80
2023/04/27 11:29:23;;;;;;;0.57;0.45;;;14.40;1.00;;;;;;4968829;28;20082;-80
2023/04/27 11:31:50;;;;;;;1.30;1.08;;;14.40;1.00;;;;;;4968849;28;20051;-80
2023/04/27 11:34:20;;;;;;;0.25;0.25;;;14.40;1.00;;;;;;4968539;28;20485;-80
2023/04/27 11:37:05;;;;;;;1.00;0.70;;;14.30;1.00;;;;;;4968880;28;20058;-80
2023/04/27 11:39:40;;;;;;;0.10;0.10;;;14.40;1.00;;;;;;4968455;28;20082;-80
2023/04/27 11:42:15;;;;;;;0.52;0.43;;;14.50;1.00;;;;;;4968410;28;20325;-80
2023/04/27 11:44:41;;;;;;;0.30;0.28;;;14.80;1.00;;;;;;4968273;28;20077;-80
2023/04/27 11:47:07;;;;;;;0.35;0.35;;;14.90;1.00;;;;;;4968179;28;20440;-80
2023/04/27 11:49:33;;;;;;;0.00;0.00;;;15.30;1.00;;;;;;4968556;28;20058;-80
2023/04/27 11:51:59;;;;;;;0.68;0.43;;;16.10;1.00;;;;;;4968962;28;20389;-80
2023/04/27 11:54:28;;;;;;;0.95;0.47;;;15.50;1.00;;;;;;4967654;28;20047;-80
2023/04/27 11:57:04;;;;;;;0.63;0.43;;;15.90;1.00;;;;;;4967055;28;20089;-80
2023/04/27 11:59:30;;;;;;;0.17;0.15;;;15.90;1.00;;;;;;4968816;28;20043;-80
2023/04/27 12:01:56;;;;;;;0.85;0.77;;;15.70;1.00;;;;;;4967677;28;20054;-80
2023/04/27 12:04:21;;;;;;;2.78;1.08;;;15.90;1.00;;;;;;4967220;28;20606;-80
2023/04/27 12:06:47;;;;;;;0.38;0.35;;;16.10;1.00;;;;;;4967715;28;20042;-80
2023/04/27 12:09:12;;;;;;;0.40;0.20;;;17.00;1.00;;;;;;4968601;28;20042;-80
2023/04/27 12:11:38;;;;;;;0.75;0.43;;;17.60;1.00;;;;;;4967600;28;20051;-80
2023/04/27 12:14:04;;;;;;;0.50;0.28;;;17.50;1.00;;;;;;4968463;28;20051;-81
2023/04/27 12:16:30;;;;;;;2.25;0.43;;;17.10;1.00;;;;;;4968135;28;20107;-80
2023/04/27 12:18:55;;;;;;;0.47;0.35;;;16.90;1.00;;;;;;4968916;28;20130;-81
2023/04/27 12:21:21;;;;;;;0.15;0.13;;;16.60;1.00;;;;;;4971504;28;20055;-81
2023/04/27 12:23:47;;;;;;;0.00;0.00;;;16.30;1.00;;;;;;4971783;28;20090;-81
2023/04/27 12:26:12;;;;;;;0.40;0.38;;;16.20;1.00;;;;;;4970798;28;20046;-80
2023/04/27 12:28:38;;;;;;;2.28;0.75;;;15.90;1.00;;;;;;4971285;28;20507;-80
2023/04/27 12:31:05;;;;;;;0.55;0.55;;;15.60;1.00;;;;;;4970472;28;20110;-80
2023/04/27 12:33:31;;;;;;;0.00;0.00;;;15.40;1.00;;;;;;4967645;28;20039;-80
2023/04/27 12:35:56;;;;;;;0.38;0.32;;;15.10;1.00;;;;;;4971229;28;20066;-80
2023/04/27 12:38:22;;;;;;;0.63;0.57;;;14.60;1.00;;;;;;4971320;28;20050;-81
2023/04/27 12:40:48;;;;;;;0.52;0.38;;;14.50;1.00;;;;;;4970879;28;20074;-80
2023/04/27 12:43:14;;;;;;;0.20;0.20;;;14.30;1.00;;;;;;4970930;28;20069;-80
2023/04/27 12:45:40;;;;;;;0.30;0.20;;;14.30;1.00;;;;;;4971955;28;20043;-80
2023/04/27 12:48:06;;;;;;;1.30;0.80;;;14.30;1.00;;;;;;4971872;28;20050;-80
2023/04/27 12:50:32;;;;;;;0.00;0.00;;;14.20;1.00;;;;;;4971139;28;20603;-80